sensor_id;sensor_type;location;lat;lon;timestamp;P1;durP1;ratioP1;P2;durP2;ratioP2
3547;SDS011;1788;49.400;11.092;2023-08-06T00:01:55;3.43;;;3.27;;
3547;SDS011;1788;49.400;11.092;2023-08-06T00:04:22;7.30;;;4.43;;
3547;SDS011;1788;49.400;11.092;2023-08-06T00:06:48;6.17;;;4.03;;
3547;SDS011;1788;49.400;11.092;2023-08-06T00:09:15;3.63;;;3.47;;
3547;SDS011;1788;49.400;11.092;2023-08-06T00:11:41;4.90;;;3.70;;
3547;SDS011;1788;49.400;11.092;2023-08-06T00:14:09;4.93;;;4.50;;
3547;SDS011;1788;49.400;11.092;2023-08-06T00:16:35;5.57;;;4.20;;
3547;SDS011;1788;49.400;11.092;2023-08-06T00:19:03;5.43;;;4.10;;
3547;SDS011;1788;49.400;11.092;2023-08-06T00:21:29;5.17;;;4.20;;
3547;SDS011;1788;49.400;11.092;2023-08-06T00:23:57;6.00;;;4.20;;
3547;SDS011;1788;49.400;11.092;2023-08-06T00:26:23;5.33;;;3.80;;
3547;SDS011;1788;49.400;11.092;2023-08-06T00:28:50;4.73;;;4.27;;
3547;SDS011;1788;49.400;11.092;2023-08-06T00:31:17;4.73;;;4.30;;
3547;SDS011;1788;49.400;11.092;2023-08-06T00:33:43;7.10;;;4.30;;
3547;SDS011;1788;49.400;11.092;2023-08-06T00:36:11;7.27;;;5.10;;
3547;SDS011;1788;49.400;11.092;2023-08-06T00:38:37;5.47;;;4.50;;
3547;SDS011;1788;49.400;11.092;2023-08-06T00:41:05;6.63;;;4.87;;
3547;SDS011;1788;49.400;11.092;2023-08-06T00:43:31;6.07;;;4.30;;
3547;SDS011;1788;49.400;11.092;2023-08-06T00:45:58;6.73;;;4.20;;
3547;SDS011;1788;49.400;11.092;2023-08-06T00:48:24;4.73;;;4.03;;
3547;SDS011;1788;49.400;11.092;2023-08-06T00:50:51;3.97;;;3.77;;
3547;SDS011;1788;49.400;11.092;2023-08-06T00:53:18;5.70;;;4.30;;
3547;SDS011;1788;49.400;11.092;2023-08-06T00:55:45;4.60;;;3.83;;
3547;SDS011;1788;49.400;11.092;2023-08-06T00:58:12;5.10;;;3.80;;
3547;SDS011;1788;49.400;11.092;2023-08-06T01:00:40;7.13;;;4.60;;
3547;SDS011;1788;49.400;11.092;2023-08-06T01:03:06;6.00;;;4.17;;
3547;SDS011;1788;49.400;11.092;2023-08-06T01:05:33;4.53;;;4.00;;
3547;SDS011;1788;49.400;11.092;2023-08-06T01:10:31;4.27;;;3.30;;
3547;SDS011;1788;49.400;11.092;2023-08-06T01:15:22;4.47;;;3.40;;
3547;SDS011;1788;49.400;11.092;2023-08-06T01:17:46;3.83;;;3.40;;
3547;SDS011;1788;49.400;11.092;2023-08-06T01:20:12;4.40;;;3.50;;
3547;SDS011;1788;49.400;11.092;2023-08-06T01:22:40;5.33;;;3.80;;
3547;SDS011;1788;49.400;11.092;2023-08-06T01:25:07;5.17;;;3.87;;
3547;SDS011;1788;49.400;11.092;2023-08-06T01:27:35;5.23;;;4.50;;
3547;SDS011;1788;49.400;11.092;2023-08-06T01:32:27;4.63;;;3.67;;
3547;SDS011;1788;49.400;11.092;2023-08-06T01:34:54;4.10;;;3.87;;
3547;SDS011;1788;49.400;11.092;2023-08-06T01:37:20;4.73;;;3.90;;
3547;SDS011;1788;49.400;11.092;2023-08-06T01:39:47;4.13;;;3.80;;
3547;SDS011;1788;49.400;11.092;2023-08-06T01:42:13;4.97;;;4.20;;
3547;SDS011;1788;49.400;11.092;2023-08-06T01:44:40;4.53;;;4.27;;
3547;SDS011;1788;49.400;11.092;2023-08-06T01:47:07;4.43;;;4.07;;
3547;SDS011;1788;49.400;11.092;2023-08-06T01:49:33;4.67;;;4.20;;
3547;SDS011;1788;49.400;11.092;2023-08-06T01:52:00;4.60;;;4.07;;
3547;SDS011;1788;49.400;11.092;2023-08-06T01:54:27;3.93;;;3.77;;
3547;SDS011;1788;49.400;11.092;2023-08-06T01:56:53;7.60;;;4.20;;
3547;SDS011;1788;49.400;11.092;2023-08-06T01:59:20;6.03;;;4.23;;
3547;SDS011;1788;49.400;11.092;2023-08-06T02:01:46;4.07;;;3.70;;
3547;SDS011;1788;49.400;11.092;2023-08-06T02:04:14;5.10;;;3.60;;
3547;SDS011;1788;49.400;11.092;2023-08-06T02:06:40;4.27;;;3.70;;
3547;SDS011;1788;49.400;11.092;2023-08-06T02:09:08;4.63;;;3.63;;
3547;SDS011;1788;49.400;11.092;2023-08-06T02:11:34;5.90;;;4.10;;
3547;SDS011;1788;49.400;11.092;2023-08-06T02:14:02;4.83;;;3.70;;
3547;SDS011;1788;49.400;11.092;2023-08-06T02:16:28;4.60;;;3.30;;
3547;SDS011;1788;49.400;11.092;2023-08-06T02:18:55;4.20;;;3.93;;
3547;SDS011;1788;49.400;11.092;2023-08-06T02:21:22;5.23;;;4.10;;
3547;SDS011;1788;49.400;11.092;2023-08-06T02:23:48;4.20;;;3.70;;
3547;SDS011;1788;49.400;11.092;2023-08-06T02:26:16;4.23;;;3.77;;
3547;SDS011;1788;49.400;11.092;2023-08-06T02:28:42;3.93;;;3.67;;
3547;SDS011;1788;49.400;11.092;2023-08-06T02:31:09;7.73;;;4.73;;
3547;SDS011;1788;49.400;11.092;2023-08-06T02:33:35;5.83;;;3.70;;
3547;SDS011;1788;49.400;11.092;2023-08-06T02:36:02;4.30;;;3.70;;
3547;SDS011;1788;49.400;11.092;2023-08-06T02:38:29;5.50;;;3.97;;
3547;SDS011;1788;49.400;11.092;2023-08-06T02:40:55;5.17;;;3.50;;
3547;SDS011;1788;49.400;11.092;2023-08-06T02:43:22;5.83;;;3.60;;
3547;SDS011;1788;49.400;11.092;2023-08-06T02:45:48;3.80;;;3.60;;
3547;SDS011;1788;49.400;11.092;2023-08-06T02:48:16;2.90;;;2.70;;
3547;SDS011;1788;49.400;11.092;2023-08-06T02:50:42;3.57;;;3.23;;
3547;SDS011;1788;49.400;11.092;2023-08-06T02:53:10;3.93;;;3.17;;
3547;SDS011;1788;49.400;11.092;2023-08-06T02:55:36;4.00;;;3.43;;
3547;SDS011;1788;49.400;11.092;2023-08-06T02:58:03;3.90;;;3.00;;
3547;SDS011;1788;49.400;11.092;2023-08-06T03:00:30;3.17;;;2.97;;
3547;SDS011;1788;49.400;11.092;2023-08-06T03:02:56;3.17;;;3.00;;
3547;SDS011;1788;49.400;11.092;2023-08-06T03:05:23;4.77;;;3.13;;
3547;SDS011;1788;49.400;11.092;2023-08-06T03:07:49;3.07;;;2.90;;
3547;SDS011;1788;49.400;11.092;2023-08-06T03:10:16;3.30;;;2.80;;
3547;SDS011;1788;49.400;11.092;2023-08-06T03:12:43;2.97;;;2.83;;
3547;SDS011;1788;49.400;11.092;2023-08-06T03:15:10;3.73;;;2.87;;
3547;SDS011;1788;49.400;11.092;2023-08-06T03:17:37;3.00;;;2.50;;
3547;SDS011;1788;49.400;11.092;2023-08-06T03:20:03;3.00;;;2.63;;
3547;SDS011;1788;49.400;11.092;2023-08-06T03:22:30;2.73;;;2.53;;
3547;SDS011;1788;49.400;11.092;2023-08-06T03:24:57;3.53;;;2.57;;
3547;SDS011;1788;49.400;11.092;2023-08-06T03:27:24;2.40;;;2.20;;
3547;SDS011;1788;49.400;11.092;2023-08-06T03:29:51;2.73;;;2.53;;
3547;SDS011;1788;49.400;11.092;2023-08-06T03:32:18;3.57;;;2.70;;
3547;SDS011;1788;49.400;11.092;2023-08-06T03:34:44;3.53;;;3.00;;
3547;SDS011;1788;49.400;11.092;2023-08-06T03:37:11;2.60;;;2.40;;
3547;SDS011;1788;49.400;11.092;2023-08-06T03:39:38;3.67;;;2.90;;
3547;SDS011;1788;49.400;11.092;2023-08-06T03:42:04;4.43;;;2.80;;
3547;SDS011;1788;49.400;11.092;2023-08-06T03:44:31;3.20;;;3.00;;
3547;SDS011;1788;49.400;11.092;2023-08-06T03:46:58;3.13;;;2.80;;
3547;SDS011;1788;49.400;11.092;2023-08-06T03:49:24;2.83;;;2.63;;
3547;SDS011;1788;49.400;11.092;2023-08-06T03:51:51;2.80;;;2.60;;
3547;SDS011;1788;49.400;11.092;2023-08-06T03:54:18;3.00;;;2.80;;
3547;SDS011;1788;49.400;11.092;2023-08-06T03:56:45;6.40;;;2.67;;
3547;SDS011;1788;49.400;11.092;2023-08-06T03:59:11;4.50;;;3.40;;
3547;SDS011;1788;49.400;11.092;2023-08-06T04:01:38;3.20;;;3.00;;
3547;SDS011;1788;49.400;11.092;2023-08-06T04:04:05;3.40;;;2.93;;
3547;SDS011;1788;49.400;11.092;2023-08-06T04:06:32;3.57;;;3.17;;
3547;SDS011;1788;49.400;11.092;2023-08-06T04:08:59;3.00;;;2.80;;
3547;SDS011;1788;49.400;11.092;2023-08-06T04:11:26;3.60;;;2.70;;
3547;SDS011;1788;49.400;11.092;2023-08-06T04:13:53;3.27;;;2.90;;
3547;SDS011;1788;49.400;11.092;2023-08-06T04:16:20;3.80;;;3.60;;
3547;SDS011;1788;49.400;11.092;2023-08-06T04:18:47;6.13;;;3.20;;
3547;SDS011;1788;49.400;11.092;2023-08-06T04:21:13;6.03;;;3.30;;
3547;SDS011;1788;49.400;11.092;2023-08-06T04:23:40;3.77;;;3.30;;
3547;SDS011;1788;49.400;11.092;2023-08-06T04:26:06;3.00;;;2.80;;
3547;SDS011;1788;49.400;11.092;2023-08-06T04:28:33;4.63;;;3.17;;
3547;SDS011;1788;49.400;11.092;2023-08-06T04:31:00;3.03;;;2.83;;
3547;SDS011;1788;49.400;11.092;2023-08-06T04:33:26;4.67;;;3.57;;
3547;SDS011;1788;49.400;11.092;2023-08-06T04:35:53;3.23;;;3.00;;
3547;SDS011;1788;49.400;11.092;2023-08-06T04:38:20;3.77;;;2.80;;
3547;SDS011;1788;49.400;11.092;2023-08-06T04:40:47;4.63;;;2.90;;
3547;SDS011;1788;49.400;11.092;2023-08-06T04:43:13;4.07;;;3.20;;
3547;SDS011;1788;49.400;11.092;2023-08-06T04:45:45;6.50;;;3.30;;
3547;SDS011;1788;49.400;11.092;2023-08-06T04:48:07;3.63;;;2.77;;
3547;SDS011;1788;49.400;11.092;2023-08-06T04:50:34;4.60;;;3.10;;
3547;SDS011;1788;49.400;11.092;2023-08-06T04:53:01;5.03;;;3.50;;
3547;SDS011;1788;49.400;11.092;2023-08-06T04:55:28;5.27;;;3.07;;
3547;SDS011;1788;49.400;11.092;2023-08-06T04:57:55;3.73;;;2.60;;
3547;SDS011;1788;49.400;11.092;2023-08-06T05:00:21;3.33;;;3.10;;
3547;SDS011;1788;49.400;11.092;2023-08-06T05:02:48;4.30;;;3.40;;
3547;SDS011;1788;49.400;11.092;2023-08-06T05:05:14;3.23;;;3.03;;
3547;SDS011;1788;49.400;11.092;2023-08-06T05:07:42;4.17;;;3.40;;
3547;SDS011;1788;49.400;11.092;2023-08-06T05:10:08;4.97;;;3.13;;
3547;SDS011;1788;49.400;11.092;2023-08-06T05:12:36;4.23;;;3.40;;
3547;SDS011;1788;49.400;11.092;2023-08-06T05:15:03;6.53;;;3.93;;
3547;SDS011;1788;49.400;11.092;2023-08-06T05:17:31;4.10;;;3.63;;
3547;SDS011;1788;49.400;11.092;2023-08-06T05:19:57;5.13;;;2.90;;
3547;SDS011;1788;49.400;11.092;2023-08-06T05:22:24;3.57;;;3.37;;
3547;SDS011;1788;49.400;11.092;2023-08-06T05:24:51;4.47;;;3.60;;
3547;SDS011;1788;49.400;11.092;2023-08-06T05:27:17;3.93;;;3.00;;
3547;SDS011;1788;49.400;11.092;2023-08-06T05:29:44;4.23;;;3.33;;
3547;SDS011;1788;49.400;11.092;2023-08-06T05:32:10;3.67;;;3.03;;
3547;SDS011;1788;49.400;11.092;2023-08-06T05:34:38;4.57;;;3.43;;
3547;SDS011;1788;49.400;11.092;2023-08-06T05:37:04;3.73;;;2.93;;
3547;SDS011;1788;49.400;11.092;2023-08-06T05:39:32;3.70;;;3.40;;
3547;SDS011;1788;49.400;11.092;2023-08-06T05:41:58;3.37;;;3.17;;
3547;SDS011;1788;49.400;11.092;2023-08-06T05:44:25;4.03;;;3.10;;
3547;SDS011;1788;49.400;11.092;2023-08-06T05:46:52;5.13;;;3.80;;
3547;SDS011;1788;49.400;11.092;2023-08-06T05:49:19;5.37;;;3.73;;
3547;SDS011;1788;49.400;11.092;2023-08-06T05:51:46;4.60;;;3.57;;
3547;SDS011;1788;49.400;11.092;2023-08-06T05:54:13;4.47;;;3.47;;
3547;SDS011;1788;49.400;11.092;2023-08-06T05:56:40;3.93;;;3.70;;
3547;SDS011;1788;49.400;11.092;2023-08-06T05:59:06;3.93;;;3.73;;
3547;SDS011;1788;49.400;11.092;2023-08-06T06:01:33;4.60;;;4.10;;
3547;SDS011;1788;49.400;11.092;2023-08-06T06:04:00;5.63;;;3.90;;
3547;SDS011;1788;49.400;11.092;2023-08-06T06:06:27;3.57;;;3.03;;
3547;SDS011;1788;49.400;11.092;2023-08-06T06:08:54;3.60;;;3.40;;
3547;SDS011;1788;49.400;11.092;2023-08-06T06:11:21;3.73;;;3.50;;
3547;SDS011;1788;49.400;11.092;2023-08-06T06:13:49;5.30;;;4.23;;
3547;SDS011;1788;49.400;11.092;2023-08-06T06:16:14;5.20;;;4.23;;
3547;SDS011;1788;49.400;11.092;2023-08-06T06:18:41;4.77;;;4.00;;
3547;SDS011;1788;49.400;11.092;2023-08-06T06:21:09;5.07;;;4.00;;
3547;SDS011;1788;49.400;11.092;2023-08-06T06:23:35;4.70;;;3.73;;
3547;SDS011;1788;49.400;11.092;2023-08-06T06:26:02;3.77;;;3.30;;
3547;SDS011;1788;49.400;11.092;2023-08-06T06:28:29;4.67;;;3.63;;
3547;SDS011;1788;49.400;11.092;2023-08-06T06:33:23;6.03;;;4.23;;
3547;SDS011;1788;49.400;11.092;2023-08-06T06:35:49;4.30;;;3.80;;
3547;SDS011;1788;49.400;11.092;2023-08-06T06:38:16;3.80;;;3.57;;
3547;SDS011;1788;49.400;11.092;2023-08-06T06:40:43;4.97;;;4.10;;
3547;SDS011;1788;49.400;11.092;2023-08-06T06:43:10;5.60;;;4.07;;
3547;SDS011;1788;49.400;11.092;2023-08-06T06:45:37;3.97;;;3.73;;
3547;SDS011;1788;49.400;11.092;2023-08-06T06:48:04;5.07;;;3.43;;
3547;SDS011;1788;49.400;11.092;2023-08-06T06:50:31;4.83;;;4.03;;
3547;SDS011;1788;49.400;11.092;2023-08-06T06:52:57;5.03;;;3.77;;
3547;SDS011;1788;49.400;11.092;2023-08-06T06:55:25;4.43;;;3.60;;
3547;SDS011;1788;49.400;11.092;2023-08-06T06:57:52;4.40;;;3.90;;
3547;SDS011;1788;49.400;11.092;2023-08-06T07:00:19;4.13;;;3.60;;
3547;SDS011;1788;49.400;11.092;2023-08-06T07:02:46;4.70;;;3.20;;
3547;SDS011;1788;49.400;11.092;2023-08-06T07:05:12;4.07;;;3.30;;
3547;SDS011;1788;49.400;11.092;2023-08-06T07:07:39;5.73;;;3.40;;
3547;SDS011;1788;49.400;11.092;2023-08-06T07:10:05;5.97;;;3.73;;
3547;SDS011;1788;49.400;11.092;2023-08-06T07:12:32;5.90;;;3.70;;
3547;SDS011;1788;49.400;11.092;2023-08-06T07:14:59;3.50;;;3.30;;
3547;SDS011;1788;49.400;11.092;2023-08-06T07:17:25;5.63;;;3.70;;
3547;SDS011;1788;49.400;11.092;2023-08-06T07:19:53;4.67;;;4.00;;
3547;SDS011;1788;49.400;11.092;2023-08-06T07:22:19;4.93;;;3.97;;
3547;SDS011;1788;49.400;11.092;2023-08-06T07:24:46;5.00;;;3.63;;
3547;SDS011;1788;49.400;11.092;2023-08-06T07:27:12;4.57;;;3.43;;
3547;SDS011;1788;49.400;11.092;2023-08-06T07:29:39;5.17;;;3.27;;
3547;SDS011;1788;49.400;11.092;2023-08-06T07:32:07;3.23;;;3.03;;
3547;SDS011;1788;49.400;11.092;2023-08-06T07:34:33;5.53;;;3.53;;
3547;SDS011;1788;49.400;11.092;2023-08-06T07:37:00;4.97;;;3.33;;
3547;SDS011;1788;49.400;11.092;2023-08-06T07:39:27;4.00;;;3.17;;
3547;SDS011;1788;49.400;11.092;2023-08-06T07:41:54;3.03;;;2.40;;
3547;SDS011;1788;49.400;11.092;2023-08-06T07:44:21;2.93;;;2.67;;
3547;SDS011;1788;49.400;11.092;2023-08-06T07:46:48;3.53;;;3.30;;
3547;SDS011;1788;49.400;11.092;2023-08-06T07:49:14;5.67;;;3.43;;
3547;SDS011;1788;49.400;11.092;2023-08-06T07:51:41;3.90;;;2.90;;
3547;SDS011;1788;49.400;11.092;2023-08-06T07:54:08;2.97;;;2.80;;
3547;SDS011;1788;49.400;11.092;2023-08-06T07:56:35;3.80;;;2.90;;
3547;SDS011;1788;49.400;11.092;2023-08-06T07:59:02;4.60;;;3.00;;
3547;SDS011;1788;49.400;11.092;2023-08-06T08:01:29;3.53;;;2.83;;
3547;SDS011;1788;49.400;11.092;2023-08-06T08:03:55;3.33;;;2.67;;
3547;SDS011;1788;49.400;11.092;2023-08-06T08:06:22;6.47;;;2.80;;
3547;SDS011;1788;49.400;11.092;2023-08-06T08:08:49;4.97;;;3.27;;
3547;SDS011;1788;49.400;11.092;2023-08-06T08:11:15;3.73;;;2.37;;
3547;SDS011;1788;49.400;11.092;2023-08-06T08:13:42;3.50;;;2.57;;
3547;SDS011;1788;49.400;11.092;2023-08-06T08:16:08;2.77;;;2.37;;
3547;SDS011;1788;49.400;11.092;2023-08-06T08:18:35;3.23;;;2.27;;
3547;SDS011;1788;49.400;11.092;2023-08-06T08:21:02;3.27;;;2.10;;
3547;SDS011;1788;49.400;11.092;2023-08-06T08:23:29;3.63;;;2.23;;
3547;SDS011;1788;49.400;11.092;2023-08-06T08:25:56;2.43;;;2.20;;
3547;SDS011;1788;49.400;11.092;2023-08-06T08:28:22;2.80;;;2.27;;
3547;SDS011;1788;49.400;11.092;2023-08-06T08:30:49;3.17;;;2.10;;
3547;SDS011;1788;49.400;11.092;2023-08-06T08:33:16;5.43;;;1.97;;
3547;SDS011;1788;49.400;11.092;2023-08-06T08:35:42;2.00;;;1.90;;
3547;SDS011;1788;49.400;11.092;2023-08-06T08:38:09;1.37;;;1.27;;
3547;SDS011;1788;49.400;11.092;2023-08-06T08:40:36;1.20;;;1.10;;
3547;SDS011;1788;49.400;11.092;2023-08-06T08:43:03;1.27;;;1.00;;
3547;SDS011;1788;49.400;11.092;2023-08-06T08:45:29;0.60;;;0.50;;
3547;SDS011;1788;49.400;11.092;2023-08-06T08:47:56;0.60;;;0.50;;
3547;SDS011;1788;49.400;11.092;2023-08-06T08:50:23;1.33;;;0.63;;
3547;SDS011;1788;49.400;11.092;2023-08-06T08:52:50;0.50;;;0.40;;
3547;SDS011;1788;49.400;11.092;2023-08-06T08:55:17;1.60;;;0.40;;
3547;SDS011;1788;49.400;11.092;2023-08-06T08:57:43;0.50;;;0.40;;
3547;SDS011;1788;49.400;11.092;2023-08-06T09:00:11;0.73;;;0.50;;
3547;SDS011;1788;49.400;11.092;2023-08-06T09:02:37;0.50;;;0.40;;
3547;SDS011;1788;49.400;11.092;2023-08-06T09:05:05;0.37;;;0.33;;
3547;SDS011;1788;49.400;11.092;2023-08-06T09:09:58;0.50;;;0.40;;
3547;SDS011;1788;49.400;11.092;2023-08-06T09:12:24;0.57;;;0.50;;
3547;SDS011;1788;49.400;11.092;2023-08-06T09:14:51;1.33;;;0.60;;
3547;SDS011;1788;49.400;11.092;2023-08-06T09:17:18;0.53;;;0.30;;
3547;SDS011;1788;49.400;11.092;2023-08-06T09:19:46;0.50;;;0.40;;
3547;SDS011;1788;49.400;11.092;2023-08-06T09:22:12;0.57;;;0.47;;
3547;SDS011;1788;49.400;11.092;2023-08-06T09:24:40;0.60;;;0.50;;
3547;SDS011;1788;49.400;11.092;2023-08-06T09:27:10;1.20;;;0.43;;
3547;SDS011;1788;49.400;11.092;2023-08-06T09:29:32;0.40;;;0.33;;
3547;SDS011;1788;49.400;11.092;2023-08-06T09:32:00;0.67;;;0.37;;
3547;SDS011;1788;49.400;11.092;2023-08-06T09:34:26;0.53;;;0.43;;
3547;SDS011;1788;49.400;11.092;2023-08-06T09:36:53;1.23;;;0.40;;
3547;SDS011;1788;49.400;11.092;2023-08-06T09:39:21;0.50;;;0.40;;
3547;SDS011;1788;49.400;11.092;2023-08-06T09:41:46;0.43;;;0.40;;
3547;SDS011;1788;49.400;11.092;2023-08-06T09:46:40;0.50;;;0.40;;
3547;SDS011;1788;49.400;11.092;2023-08-06T09:49:07;0.70;;;0.60;;
3547;SDS011;1788;49.400;11.092;2023-08-06T09:51:34;0.53;;;0.43;;
3547;SDS011;1788;49.400;11.092;2023-08-06T09:54:01;0.40;;;0.30;;
3547;SDS011;1788;49.400;11.092;2023-08-06T09:56:28;0.57;;;0.47;;
3547;SDS011;1788;49.400;11.092;2023-08-06T09:58:55;0.40;;;0.30;;
3547;SDS011;1788;49.400;11.092;2023-08-06T10:01:21;0.77;;;0.50;;
3547;SDS011;1788;49.400;11.092;2023-08-06T10:03:48;0.97;;;0.50;;
3547;SDS011;1788;49.400;11.092;2023-08-06T10:06:15;0.50;;;0.40;;
3547;SDS011;1788;49.400;11.092;2023-08-06T10:08:42;0.67;;;0.57;;
3547;SDS011;1788;49.400;11.092;2023-08-06T10:11:09;0.60;;;0.50;;
3547;SDS011;1788;49.400;11.092;2023-08-06T10:13:36;0.40;;;0.30;;
3547;SDS011;1788;49.400;11.092;2023-08-06T10:16:02;0.67;;;0.50;;
3547;SDS011;1788;49.400;11.092;2023-08-06T10:18:29;0.60;;;0.50;;
3547;SDS011;1788;49.400;11.092;2023-08-06T10:20:56;1.00;;;0.80;;
3547;SDS011;1788;49.400;11.092;2023-08-06T10:23:32;0.40;;;0.30;;
3547;SDS011;1788;49.400;11.092;2023-08-06T10:25:53;0.40;;;0.30;;
3547;SDS011;1788;49.400;11.092;2023-08-06T10:28:17;0.37;;;0.30;;
3547;SDS011;1788;49.400;11.092;2023-08-06T10:30:45;0.40;;;0.30;;
3547;SDS011;1788;49.400;11.092;2023-08-06T10:33:11;0.60;;;0.50;;
3547;SDS011;1788;49.400;11.092;2023-08-06T10:38:05;0.63;;;0.40;;
3547;SDS011;1788;49.400;11.092;2023-08-06T10:40:32;0.93;;;0.30;;
3547;SDS011;1788;49.400;11.092;2023-08-06T10:43:00;0.50;;;0.40;;
3547;SDS011;1788;49.400;11.092;2023-08-06T10:45:26;0.40;;;0.30;;
3547;SDS011;1788;49.400;11.092;2023-08-06T10:47:54;0.70;;;0.60;;
3547;SDS011;1788;49.400;11.092;2023-08-06T10:50:20;0.33;;;0.30;;
3547;SDS011;1788;49.400;11.092;2023-08-06T10:52:47;0.40;;;0.30;;
3547;SDS011;1788;49.400;11.092;2023-08-06T10:55:14;0.33;;;0.23;;
3547;SDS011;1788;49.400;11.092;2023-08-06T10:57:40;0.47;;;0.27;;
3547;SDS011;1788;49.400;11.092;2023-08-06T11:02:34;0.30;;;0.20;;
3547;SDS011;1788;49.400;11.092;2023-08-06T11:07:29;0.40;;;0.10;;
3547;SDS011;1788;49.400;11.092;2023-08-06T11:10:00;0.33;;;0.23;;
3547;SDS011;1788;49.400;11.092;2023-08-06T11:12:21;0.30;;;0.30;;
3547;SDS011;1788;49.400;11.092;2023-08-06T11:17:15;0.30;;;0.20;;
3547;SDS011;1788;49.400;11.092;2023-08-06T11:19:42;0.53;;;0.20;;
3547;SDS011;1788;49.400;11.092;2023-08-06T11:22:09;0.20;;;0.20;;
3547;SDS011;1788;49.400;11.092;2023-08-06T11:24:37;1.40;;;0.20;;
3547;SDS011;1788;49.400;11.092;2023-08-06T11:27:10;0.40;;;0.30;;
3547;SDS011;1788;49.400;11.092;2023-08-06T11:29:29;0.30;;;0.20;;
3547;SDS011;1788;49.400;11.092;2023-08-06T11:32:03;0.30;;;0.20;;
3547;SDS011;1788;49.400;11.092;2023-08-06T11:34:22;0.90;;;0.80;;
3547;SDS011;1788;49.400;11.092;2023-08-06T11:36:49;0.50;;;0.40;;
3547;SDS011;1788;49.400;11.092;2023-08-06T11:39:16;0.37;;;0.27;;
3547;SDS011;1788;49.400;11.092;2023-08-06T11:41:42;0.50;;;0.40;;
3547;SDS011;1788;49.400;11.092;2023-08-06T11:44:10;0.50;;;0.40;;
3547;SDS011;1788;49.400;11.092;2023-08-06T11:49:03;0.40;;;0.30;;
3547;SDS011;1788;49.400;11.092;2023-08-06T11:51:29;0.40;;;0.30;;
3547;SDS011;1788;49.400;11.092;2023-08-06T11:53:56;0.30;;;0.20;;
3547;SDS011;1788;49.400;11.092;2023-08-06T11:56:24;0.30;;;0.20;;
3547;SDS011;1788;49.400;11.092;2023-08-06T11:58:50;0.40;;;0.30;;
3547;SDS011;1788;49.400;11.092;2023-08-06T12:01:17;0.37;;;0.30;;
3547;SDS011;1788;49.400;11.092;2023-08-06T12:03:43;0.40;;;0.30;;
3547;SDS011;1788;49.400;11.092;2023-08-06T12:06:10;0.40;;;0.30;;
3547;SDS011;1788;49.400;11.092;2023-08-06T12:08:36;0.30;;;0.20;;
3547;SDS011;1788;49.400;11.092;2023-08-06T12:11:03;0.63;;;0.50;;
3547;SDS011;1788;49.400;11.092;2023-08-06T12:13:30;0.73;;;0.23;;
3547;SDS011;1788;49.400;11.092;2023-08-06T12:15:56;0.33;;;0.20;;
3547;SDS011;1788;49.400;11.092;2023-08-06T12:18:24;0.50;;;0.40;;
3547;SDS011;1788;49.400;11.092;2023-08-06T12:20:50;0.30;;;0.20;;
3547;SDS011;1788;49.400;11.092;2023-08-06T12:23:18;0.63;;;0.30;;
3547;SDS011;1788;49.400;11.092;2023-08-06T12:25:44;0.50;;;0.40;;
3547;SDS011;1788;49.400;11.092;2023-08-06T12:28:11;1.80;;;0.73;;
3547;SDS011;1788;49.400;11.092;2023-08-06T12:30:37;0.50;;;0.40;;
3547;SDS011;1788;49.400;11.092;2023-08-06T12:33:04;1.60;;;1.23;;
3547;SDS011;1788;49.400;11.092;2023-08-06T12:35:31;0.30;;;0.20;;
3547;SDS011;1788;49.400;11.092;2023-08-06T12:37:59;0.40;;;0.30;;
3547;SDS011;1788;49.400;11.092;2023-08-06T12:40:25;0.40;;;0.30;;
3547;SDS011;1788;49.400;11.092;2023-08-06T12:42:52;0.70;;;0.40;;
3547;SDS011;1788;49.400;11.092;2023-08-06T12:45:19;0.40;;;0.30;;
3547;SDS011;1788;49.400;11.092;2023-08-06T12:47:46;0.30;;;0.20;;
3547;SDS011;1788;49.400;11.092;2023-08-06T12:50:13;1.20;;;0.40;;
3547;SDS011;1788;49.400;11.092;2023-08-06T12:52:40;0.30;;;0.20;;
3547;SDS011;1788;49.400;11.092;2023-08-06T12:55:07;0.30;;;0.20;;
3547;SDS011;1788;49.400;11.092;2023-08-06T12:57:33;0.40;;;0.30;;
3547;SDS011;1788;49.400;11.092;2023-08-06T13:00:00;0.30;;;0.20;;
3547;SDS011;1788;49.400;11.092;2023-08-06T13:02:26;0.30;;;0.20;;
3547;SDS011;1788;49.400;11.092;2023-08-06T13:04:53;0.30;;;0.20;;
3547;SDS011;1788;49.400;11.092;2023-08-06T13:07:20;0.30;;;0.20;;
3547;SDS011;1788;49.400;11.092;2023-08-06T13:09:46;0.30;;;0.20;;
3547;SDS011;1788;49.400;11.092;2023-08-06T13:12:14;1.50;;;0.20;;
3547;SDS011;1788;49.400;11.092;2023-08-06T13:14:40;0.77;;;0.23;;
3547;SDS011;1788;49.400;11.092;2023-08-06T13:17:07;0.30;;;0.20;;
3547;SDS011;1788;49.400;11.092;2023-08-06T13:19:33;0.20;;;0.10;;
3547;SDS011;1788;49.400;11.092;2023-08-06T13:22:01;0.30;;;0.20;;
3547;SDS011;1788;49.400;11.092;2023-08-06T13:24:28;0.60;;;0.50;;
3547;SDS011;1788;49.400;11.092;2023-08-06T13:26:54;0.43;;;0.37;;
3547;SDS011;1788;49.400;11.092;2023-08-06T13:29:21;0.43;;;0.40;;
3547;SDS011;1788;49.400;11.092;2023-08-06T13:31:48;0.50;;;0.20;;
3547;SDS011;1788;49.400;11.092;2023-08-06T13:34:15;1.00;;;0.30;;
3547;SDS011;1788;49.400;11.092;2023-08-06T13:36:41;0.30;;;0.20;;
3547;SDS011;1788;49.400;11.092;2023-08-06T13:39:08;0.33;;;0.20;;
3547;SDS011;1788;49.400;11.092;2023-08-06T13:41:34;0.40;;;0.20;;
3547;SDS011;1788;49.400;11.092;2023-08-06T13:44:01;0.20;;;0.10;;
3547;SDS011;1788;49.400;11.092;2023-08-06T13:46:28;0.40;;;0.30;;
3547;SDS011;1788;49.400;11.092;2023-08-06T13:48:54;0.20;;;0.10;;
3547;SDS011;1788;49.400;11.092;2023-08-06T13:51:22;0.30;;;0.20;;
3547;SDS011;1788;49.400;11.092;2023-08-06T13:53:48;0.40;;;0.33;;
3547;SDS011;1788;49.400;11.092;2023-08-06T13:56:15;0.30;;;0.20;;
3547;SDS011;1788;49.400;11.092;2023-08-06T13:58:41;0.30;;;0.20;;
3547;SDS011;1788;49.400;11.092;2023-08-06T14:01:09;0.20;;;0.10;;
3547;SDS011;1788;49.400;11.092;2023-08-06T14:03:35;0.30;;;0.20;;
3547;SDS011;1788;49.400;11.092;2023-08-06T14:06:02;0.30;;;0.20;;
3547;SDS011;1788;49.400;11.092;2023-08-06T14:08:29;0.40;;;0.30;;
3547;SDS011;1788;49.400;11.092;2023-08-06T14:10:56;0.43;;;0.33;;
3547;SDS011;1788;49.400;11.092;2023-08-06T14:13:23;0.47;;;0.37;;
3547;SDS011;1788;49.400;11.092;2023-08-06T14:15:50;0.30;;;0.20;;
3547;SDS011;1788;49.400;11.092;2023-08-06T14:18:17;0.40;;;0.30;;
3547;SDS011;1788;49.400;11.092;2023-08-06T14:20:44;0.40;;;0.30;;
3547;SDS011;1788;49.400;11.092;2023-08-06T14:23:11;0.60;;;0.50;;
3547;SDS011;1788;49.400;11.092;2023-08-06T14:25:38;0.67;;;0.30;;
3547;SDS011;1788;49.400;11.092;2023-08-06T14:28:05;0.20;;;0.20;;
3547;SDS011;1788;49.400;11.092;2023-08-06T14:30:32;0.33;;;0.23;;
3547;SDS011;1788;49.400;11.092;2023-08-06T14:32:58;0.47;;;0.37;;
3547;SDS011;1788;49.400;11.092;2023-08-06T14:35:25;0.40;;;0.30;;
3547;SDS011;1788;49.400;11.092;2023-08-06T14:37:51;0.30;;;0.20;;
3547;SDS011;1788;49.400;11.092;2023-08-06T14:40:19;0.33;;;0.30;;
3547;SDS011;1788;49.400;11.092;2023-08-06T14:42:46;0.57;;;0.47;;
3547;SDS011;1788;49.400;11.092;2023-08-06T14:45:13;0.40;;;0.30;;
3547;SDS011;1788;49.400;11.092;2023-08-06T14:47:40;0.50;;;0.40;;
3547;SDS011;1788;49.400;11.092;2023-08-06T14:50:07;0.40;;;0.30;;
3547;SDS011;1788;49.400;11.092;2023-08-06T14:52:33;0.40;;;0.30;;
3547;SDS011;1788;49.400;11.092;2023-08-06T14:55:00;0.50;;;0.40;;
3547;SDS011;1788;49.400;11.092;2023-08-06T14:57:27;0.47;;;0.40;;
3547;SDS011;1788;49.400;11.092;2023-08-06T14:59:54;1.27;;;0.40;;
3547;SDS011;1788;49.400;11.092;2023-08-06T15:02:21;0.50;;;0.47;;
3547;SDS011;1788;49.400;11.092;2023-08-06T15:04:48;0.40;;;0.33;;
3547;SDS011;1788;49.400;11.092;2023-08-06T15:07:14;0.80;;;0.60;;
3547;SDS011;1788;49.400;11.092;2023-08-06T15:09:41;1.67;;;0.60;;
3547;SDS011;1788;49.400;11.092;2023-08-06T15:12:08;0.70;;;0.60;;
3547;SDS011;1788;49.400;11.092;2023-08-06T15:14:35;1.23;;;0.73;;
3547;SDS011;1788;49.400;11.092;2023-08-06T15:17:02;0.60;;;0.50;;
3547;SDS011;1788;49.400;11.092;2023-08-06T15:19:28;0.70;;;0.60;;
3547;SDS011;1788;49.400;11.092;2023-08-06T15:21:55;0.67;;;0.57;;
3547;SDS011;1788;49.400;11.092;2023-08-06T15:24:22;0.63;;;0.53;;